sensor_id;sensor_type;location;lat;lon;timestamp;P1;durP1;ratioP1;P2;durP2;ratioP2
78781;SDS011;68126;55.748;48.742;2023-08-30T00:00:05;2.95;;;1.57;;
78781;SDS011;68126;55.748;48.742;2023-08-30T00:05:30;4.37;;;1.65;;
78781;SDS011;68126;55.748;48.742;2023-08-30T00:10:55;3.95;;;1.20;;
78781;SDS011;68126;55.748;48.742;2023-08-30T00:16:20;4.25;;;1.65;;
78781;SDS011;68126;55.748;48.742;2023-08-30T00:21:45;2.70;;;1.80;;
78781;SDS011;68126;55.748;48.742;2023-08-30T00:27:10;3.92;;;1.77;;
78781;SDS011;68126;55.748;48.742;2023-08-30T00:32:35;2.08;;;1.00;;
78781;SDS011;68126;55.748;48.742;2023-08-30T00:38:00;4.22;;;1.87;;
78781;SDS011;68126;55.748;48.742;2023-08-30T00:43:25;3.20;;;1.47;;
78781;SDS011;68126;55.748;48.742;2023-08-30T00:48:50;5.20;;;1.37;;
78781;SDS011;68126;55.748;48.742;2023-08-30T00:54:14;3.05;;;1.52;;
78781;SDS011;68126;55.748;48.742;2023-08-30T00:59:39;4.05;;;1.27;;
78781;SDS011;68126;55.748;48.742;2023-08-30T01:05:04;2.77;;;1.32;;
78781;SDS011;68126;55.748;48.742;2023-08-30T01:11:03;2.50;;;1.55;;
78781;SDS011;68126;55.748;48.742;2023-08-30T01:15:57;6.42;;;1.35;;
78781;SDS011;68126;55.748;48.742;2023-08-30T01:32:55;3.20;;;2.00;;
78781;SDS011;68126;55.748;48.742;2023-08-30T01:38:20;3.42;;;1.82;;
78781;SDS011;68126;55.748;48.742;2023-08-30T01:43:45;4.60;;;1.42;;
78781;SDS011;68126;55.748;48.742;2023-08-30T01:49:11;6.70;;;1.85;;
78781;SDS011;68126;55.748;48.742;2023-08-30T01:54:36;3.55;;;1.67;;
78781;SDS011;68126;55.748;48.742;2023-08-30T02:00:02;3.65;;;1.45;;
78781;SDS011;68126;55.748;48.742;2023-08-30T02:05:28;2.90;;;1.72;;
78781;SDS011;68126;55.748;48.742;2023-08-30T02:11:26;4.65;;;1.87;;
78781;SDS011;68126;55.748;48.742;2023-08-30T02:16:21;2.33;;;1.65;;
78781;SDS011;68126;55.748;48.742;2023-08-30T02:21:47;3.08;;;1.47;;
78781;SDS011;68126;55.748;48.742;2023-08-30T02:27:12;4.30;;;1.62;;
78781;SDS011;68126;55.748;48.742;2023-08-30T02:32:37;3.83;;;1.42;;
78781;SDS011;68126;55.748;48.742;2023-08-30T02:38:02;3.50;;;1.60;;
78781;SDS011;68126;55.748;48.742;2023-08-30T02:43:27;3.33;;;1.65;;
78781;SDS011;68126;55.748;48.742;2023-08-30T02:48:52;3.95;;;2.00;;
78781;SDS011;68126;55.748;48.742;2023-08-30T02:54:17;4.03;;;1.77;;
78781;SDS011;68126;55.748;48.742;2023-08-30T02:59:42;3.33;;;1.32;;
78781;SDS011;68126;55.748;48.742;2023-08-30T03:05:07;4.53;;;2.02;;
78781;SDS011;68126;55.748;48.742;2023-08-30T03:10:32;3.27;;;2.12;;
78781;SDS011;68126;55.748;48.742;2023-08-30T03:15:56;2.95;;;1.50;;
78781;SDS011;68126;55.748;48.742;2023-08-30T03:21:22;3.15;;;1.65;;
78781;SDS011;68126;55.748;48.742;2023-08-30T03:26:46;4.30;;;2.55;;
78781;SDS011;68126;55.748;48.742;2023-08-30T03:32:15;5.33;;;2.05;;
78781;SDS011;68126;55.748;48.742;2023-08-30T03:37:38;3.30;;;1.72;;
78781;SDS011;68126;55.748;48.742;2023-08-30T03:43:02;3.62;;;1.62;;
78781;SDS011;68126;55.748;48.742;2023-08-30T03:48:27;2.58;;;1.90;;
78781;SDS011;68126;55.748;48.742;2023-08-30T03:53:52;3.58;;;2.20;;
78781;SDS011;68126;55.748;48.742;2023-08-30T03:59:18;4.62;;;1.87;;
78781;SDS011;68126;55.748;48.742;2023-08-30T04:04:46;4.47;;;1.22;;
78781;SDS011;68126;55.748;48.742;2023-08-30T04:10:11;3.37;;;1.70;;
78781;SDS011;68126;55.748;48.742;2023-08-30T04:15:36;4.20;;;1.70;;
78781;SDS011;68126;55.748;48.742;2023-08-30T04:21:01;4.67;;;2.12;;
78781;SDS011;68126;55.748;48.742;2023-08-30T04:26:27;4.50;;;2.37;;
78781;SDS011;68126;55.748;48.742;2023-08-30T04:31:52;3.83;;;1.92;;
78781;SDS011;68126;55.748;48.742;2023-08-30T04:37:17;3.52;;;1.22;;
78781;SDS011;68126;55.748;48.742;2023-08-30T04:42:42;4.65;;;1.62;;
78781;SDS011;68126;55.748;48.742;2023-08-30T04:48:07;3.17;;;1.20;;
78781;SDS011;68126;55.748;48.742;2023-08-30T04:53:32;2.70;;;1.60;;
78781;SDS011;68126;55.748;48.742;2023-08-30T04:58:56;2.87;;;1.17;;
78781;SDS011;68126;55.748;48.742;2023-08-30T05:04:21;2.70;;;1.15;;
78781;SDS011;68126;55.748;48.742;2023-08-30T05:09:46;2.98;;;1.50;;
78781;SDS011;68126;55.748;48.742;2023-08-30T05:15:11;3.25;;;1.17;;
78781;SDS011;68126;55.748;48.742;2023-08-30T05:20:36;2.80;;;1.20;;
78781;SDS011;68126;55.748;48.742;2023-08-30T05:26:00;2.52;;;1.25;;
78781;SDS011;68126;55.748;48.742;2023-08-30T05:31:25;1.57;;;0.82;;
78781;SDS011;68126;55.748;48.742;2023-08-30T05:36:50;2.80;;;1.40;;
78781;SDS011;68126;55.748;48.742;2023-08-30T05:42:15;5.85;;;1.70;;
78781;SDS011;68126;55.748;48.742;2023-08-30T05:48:00;3.30;;;1.40;;
78781;SDS011;68126;55.748;48.742;2023-08-30T05:53:24;3.70;;;1.12;;
78781;SDS011;68126;55.748;48.742;2023-08-30T05:58:49;3.55;;;1.70;;
78781;SDS011;68126;55.748;48.742;2023-08-30T06:04:14;2.65;;;1.20;;
78781;SDS011;68126;55.748;48.742;2023-08-30T06:10:14;3.62;;;1.87;;
78781;SDS011;68126;55.748;48.742;2023-08-30T06:15:37;2.27;;;1.25;;
78781;SDS011;68126;55.748;48.742;2023-08-30T06:21:02;3.50;;;1.45;;
78781;SDS011;68126;55.748;48.742;2023-08-30T06:26:27;2.62;;;1.15;;
78781;SDS011;68126;55.748;48.742;2023-08-30T06:31:52;2.52;;;1.00;;
78781;SDS011;68126;55.748;48.742;2023-08-30T06:37:17;4.05;;;2.12;;
78781;SDS011;68126;55.748;48.742;2023-08-30T06:42:41;2.30;;;1.25;;
78781;SDS011;68126;55.748;48.742;2023-08-30T06:48:06;2.90;;;1.20;;
78781;SDS011;68126;55.748;48.742;2023-08-30T06:53:31;2.67;;;1.65;;
78781;SDS011;68126;55.748;48.742;2023-08-30T06:58:56;1.70;;;0.88;;
78781;SDS011;68126;55.748;48.742;2023-08-30T07:04:21;2.75;;;1.12;;
78781;SDS011;68126;55.748;48.742;2023-08-30T07:09:45;4.50;;;1.62;;
78781;SDS011;68126;55.748;48.742;2023-08-30T07:15:10;3.25;;;1.10;;
78781;SDS011;68126;55.748;48.742;2023-08-30T07:20:35;7.30;;;1.30;;
78781;SDS011;68126;55.748;48.742;2023-08-30T07:26:02;2.10;;;1.00;;
78781;SDS011;68126;55.748;48.742;2023-08-30T07:31:27;2.02;;;1.05;;
78781;SDS011;68126;55.748;48.742;2023-08-30T07:36:53;2.45;;;1.57;;
78781;SDS011;68126;55.748;48.742;2023-08-30T07:42:18;2.08;;;0.95;;
78781;SDS011;68126;55.748;48.742;2023-08-30T07:47:44;1.95;;;1.05;;
78781;SDS011;68126;55.748;48.742;2023-08-30T07:53:09;1.80;;;0.95;;
78781;SDS011;68126;55.748;48.742;2023-08-30T07:58:34;2.37;;;1.00;;
78781;SDS011;68126;55.748;48.742;2023-08-30T08:03:59;2.58;;;0.55;;
78781;SDS011;68126;55.748;48.742;2023-08-30T08:09:24;1.85;;;0.50;;
78781;SDS011;68126;55.748;48.742;2023-08-30T08:14:49;1.12;;;0.70;;
78781;SDS011;68126;55.748;48.742;2023-08-30T08:20:14;2.30;;;0.47;;
78781;SDS011;68126;55.748;48.742;2023-08-30T08:25:39;1.87;;;0.70;;
78781;SDS011;68126;55.748;48.742;2023-08-30T08:31:03;1.17;;;0.70;;
78781;SDS011;68126;55.748;48.742;2023-08-30T08:36:28;1.05;;;0.45;;
78781;SDS011;68126;55.748;48.742;2023-08-30T08:41:53;3.47;;;0.70;;
78781;SDS011;68126;55.748;48.742;2023-08-30T08:47:19;1.10;;;0.33;;
78781;SDS011;68126;55.748;48.742;2023-08-30T08:52:44;0.82;;;0.37;;
78781;SDS011;68126;55.748;48.742;2023-08-30T08:58:09;1.62;;;0.30;;
78781;SDS011;68126;55.748;48.742;2023-08-30T09:03:35;4.20;;;0.70;;
78781;SDS011;68126;55.748;48.742;2023-08-30T09:14:27;0.93;;;0.37;;
78781;SDS011;68126;55.748;48.742;2023-08-30T09:19:51;0.98;;;0.62;;
78781;SDS011;68126;55.748;48.742;2023-08-30T09:25:36;0.98;;;0.57;;
78781;SDS011;68126;55.748;48.742;2023-08-30T09:31:02;1.40;;;0.37;;
78781;SDS011;68126;55.748;48.742;2023-08-30T09:42:16;0.95;;;0.25;;
78781;SDS011;68126;55.748;48.742;2023-08-30T09:59:09;1.05;;;0.30;;
78781;SDS011;68126;55.748;48.742;2023-08-30T10:04:35;3.75;;;0.13;;
78781;SDS011;68126;55.748;48.742;2023-08-30T10:10:21;3.22;;;0.50;;
78781;SDS011;68126;55.748;48.742;2023-08-30T10:16:06;1.42;;;0.53;;
78781;SDS011;68126;55.748;48.742;2023-08-30T10:21:31;1.17;;;0.40;;
78781;SDS011;68126;55.748;48.742;2023-08-30T10:26:57;1.37;;;0.30;;
78781;SDS011;68126;55.748;48.742;2023-08-30T10:32:24;1.82;;;0.40;;
78781;SDS011;68126;55.748;48.742;2023-08-30T10:49:07;0.82;;;0.35;;
78781;SDS011;68126;55.748;48.742;2023-08-30T10:54:23;2.35;;;0.40;;
78781;SDS011;68126;55.748;48.742;2023-08-30T11:05:33;1.77;;;0.85;;
78781;SDS011;68126;55.748;48.742;2023-08-30T11:16:43;4.85;;;0.20;;
78781;SDS011;68126;55.748;48.742;2023-08-30T11:22:07;0.78;;;0.35;;
78781;SDS011;68126;55.748;48.742;2023-08-30T11:27:32;1.45;;;0.20;;
78781;SDS011;68126;55.748;48.742;2023-08-30T11:32:57;2.15;;;0.25;;
78781;SDS011;68126;55.748;48.742;2023-08-30T11:38:22;0.88;;;0.40;;
78781;SDS011;68126;55.748;48.742;2023-08-30T11:43:47;0.95;;;0.13;;
78781;SDS011;68126;55.748;48.742;2023-08-30T11:49:12;1.92;;;0.53;;
78781;SDS011;68126;55.748;48.742;2023-08-30T11:54:37;0.60;;;0.23;;
78781;SDS011;68126;55.748;48.742;2023-08-30T12:05:50;1.50;;;0.68;;
78781;SDS011;68126;55.748;48.742;2023-08-30T12:16:59;1.90;;;0.42;;
78781;SDS011;68126;55.748;48.742;2023-08-30T12:28:15;2.33;;;0.33;;
78781;SDS011;68126;55.748;48.742;2023-08-30T12:33:40;1.10;;;0.23;;
78781;SDS011;68126;55.748;48.742;2023-08-30T12:39:05;1.05;;;0.40;;
78781;SDS011;68126;55.748;48.742;2023-08-30T12:44:30;3.15;;;0.95;;
78781;SDS011;68126;55.748;48.742;2023-08-30T12:49:55;0.85;;;0.10;;
78781;SDS011;68126;55.748;48.742;2023-08-30T12:55:20;1.82;;;0.30;;
78781;SDS011;68126;55.748;48.742;2023-08-30T13:00:44;0.98;;;0.42;;
78781;SDS011;68126;55.748;48.742;2023-08-30T13:06:09;1.17;;;0.37;;
78781;SDS011;68126;55.748;48.742;2023-08-30T13:11:34;6.62;;;0.55;;
78781;SDS011;68126;55.748;48.742;2023-08-30T13:17:00;2.37;;;0.80;;
78781;SDS011;68126;55.748;48.742;2023-08-30T13:22:25;1.02;;;0.45;;
78781;SDS011;68126;55.748;48.742;2023-08-30T13:27:50;1.40;;;0.72;;
78781;SDS011;68126;55.748;48.742;2023-08-30T13:33:16;1.32;;;0.60;;
78781;SDS011;68126;55.748;48.742;2023-08-30T13:38:41;1.17;;;0.25;;
78781;SDS011;68126;55.748;48.742;2023-08-30T13:44:06;2.45;;;0.37;;
78781;SDS011;68126;55.748;48.742;2023-08-30T13:49:31;1.45;;;0.72;;
78781;SDS011;68126;55.748;48.742;2023-08-30T14:00:43;2.15;;;0.40;;
78781;SDS011;68126;55.748;48.742;2023-08-30T14:06:08;1.22;;;0.33;;
78781;SDS011;68126;55.748;48.742;2023-08-30T14:11:34;2.70;;;0.62;;
78781;SDS011;68126;55.748;48.742;2023-08-30T14:17:00;1.85;;;0.80;;
78781;SDS011;68126;55.748;48.742;2023-08-30T14:27:48;3.08;;;0.80;;
78781;SDS011;68126;55.748;48.742;2023-08-30T14:33:13;3.87;;;0.98;;
78781;SDS011;68126;55.748;48.742;2023-08-30T14:38:38;1.45;;;0.50;;
78781;SDS011;68126;55.748;48.742;2023-08-30T14:44:03;3.72;;;0.93;;
78781;SDS011;68126;55.748;48.742;2023-08-30T14:49:30;3.08;;;0.93;;
78781;SDS011;68126;55.748;48.742;2023-08-30T14:54:55;3.02;;;0.47;;
78781;SDS011;68126;55.748;48.742;2023-08-30T15:00:20;4.03;;;0.88;;
78781;SDS011;68126;55.748;48.742;2023-08-30T15:05:52;4.30;;;1.12;;
78781;SDS011;68126;55.748;48.742;2023-08-30T15:11:13;4.10;;;1.05;;
78781;SDS011;68126;55.748;48.742;2023-08-30T15:16:37;3.47;;;1.15;;
78781;SDS011;68126;55.748;48.742;2023-08-30T15:22:02;2.00;;;0.95;;
78781;SDS011;68126;55.748;48.742;2023-08-30T15:27:27;1.95;;;1.27;;
78781;SDS011;68126;55.748;48.742;2023-08-30T15:32:52;5.33;;;0.70;;
78781;SDS011;68126;55.748;48.742;2023-08-30T15:38:17;2.65;;;1.20;;
78781;SDS011;68126;55.748;48.742;2023-08-30T15:43:42;2.47;;;1.35;;
78781;SDS011;68126;55.748;48.742;2023-08-30T15:49:07;3.25;;;0.90;;
78781;SDS011;68126;55.748;48.742;2023-08-30T15:54:31;1.85;;;0.90;;
78781;SDS011;68126;55.748;48.742;2023-08-30T15:59:56;3.35;;;1.42;;
78781;SDS011;68126;55.748;48.742;2023-08-30T16:05:21;5.25;;;1.95;;
78781;SDS011;68126;55.748;48.742;2023-08-30T16:10:51;1.80;;;0.75;;
78781;SDS011;68126;55.748;48.742;2023-08-30T16:16:12;3.75;;;1.45;;
78781;SDS011;68126;55.748;48.742;2023-08-30T16:21:37;3.87;;;1.77;;
78781;SDS011;68126;55.748;48.742;2023-08-30T16:27:02;4.75;;;1.55;;
78781;SDS011;68126;55.748;48.742;2023-08-30T16:32:26;4.58;;;1.62;;
78781;SDS011;68126;55.748;48.742;2023-08-30T16:37:51;5.58;;;1.47;;
78781;SDS011;68126;55.748;48.742;2023-08-30T16:43:16;3.72;;;1.80;;
78781;SDS011;68126;55.748;48.742;2023-08-30T16:48:41;3.25;;;1.15;;
78781;SDS011;68126;55.748;48.742;2023-08-30T16:54:06;6.08;;;1.32;;
78781;SDS011;68126;55.748;48.742;2023-08-30T16:59:31;2.50;;;1.12;;
78781;SDS011;68126;55.748;48.742;2023-08-30T17:04:56;3.22;;;1.05;;
78781;SDS011;68126;55.748;48.742;2023-08-30T17:10:21;3.08;;;1.30;;
78781;SDS011;68126;55.748;48.742;2023-08-30T17:15:46;4.78;;;1.82;;
78781;SDS011;68126;55.748;48.742;2023-08-30T17:21:11;4.67;;;2.10;;
78781;SDS011;68126;55.748;48.742;2023-08-30T17:26:36;3.98;;;1.60;;
78781;SDS011;68126;55.748;48.742;2023-08-30T17:32:02;5.28;;;1.70;;
78781;SDS011;68126;55.748;48.742;2023-08-30T17:37:27;4.50;;;2.30;;
78781;SDS011;68126;55.748;48.742;2023-08-30T17:42:52;2.45;;;1.30;;
78781;SDS011;68126;55.748;48.742;2023-08-30T17:48:18;1.72;;;1.05;;
78781;SDS011;68126;55.748;48.742;2023-08-30T17:53:43;2.02;;;0.80;;
78781;SDS011;68126;55.748;48.742;2023-08-30T17:59:27;2.67;;;1.20;;
78781;SDS011;68126;55.748;48.742;2023-08-30T18:10:22;2.80;;;1.60;;
78781;SDS011;68126;55.748;48.742;2023-08-30T18:15:57;3.25;;;1.10;;
78781;SDS011;68126;55.748;48.742;2023-08-30T18:27:11;2.47;;;1.20;;
78781;SDS011;68126;55.748;48.742;2023-08-30T18:32:36;4.72;;;1.40;;
78781;SDS011;68126;55.748;48.742;2023-08-30T18:38:01;3.62;;;1.80;;
78781;SDS011;68126;55.748;48.742;2023-08-30T18:43:26;2.72;;;1.52;;
78781;SDS011;68126;55.748;48.742;2023-08-30T18:48:52;3.20;;;2.02;;
78781;SDS011;68126;55.748;48.742;2023-08-30T18:54:19;2.35;;;0.75;;
78781;SDS011;68126;55.748;48.742;2023-08-30T18:59:45;2.40;;;1.22;;
78781;SDS011;68126;55.748;48.742;2023-08-30T19:05:12;3.12;;;1.15;;
78781;SDS011;68126;55.748;48.742;2023-08-30T19:10:57;3.55;;;0.93;;
78781;SDS011;68126;55.748;48.742;2023-08-30T19:27:15;3.12;;;1.00;;
78781;SDS011;68126;55.748;48.742;2023-08-30T19:32:40;3.65;;;1.07;;
78781;SDS011;68126;55.748;48.742;2023-08-30T19:38:24;1.57;;;0.72;;
78781;SDS011;68126;55.748;48.742;2023-08-30T19:49:34;1.90;;;0.93;;
78781;SDS011;68126;55.748;48.742;2023-08-30T19:54:59;3.17;;;1.55;;
78781;SDS011;68126;55.748;48.742;2023-08-30T20:00:25;3.22;;;1.10;;
78781;SDS011;68126;55.748;48.742;2023-08-30T20:05:51;3.70;;;1.07;;
78781;SDS011;68126;55.748;48.742;2023-08-30T20:11:16;2.15;;;1.07;;
78781;SDS011;68126;55.748;48.742;2023-08-30T20:16:41;2.47;;;1.27;;
78781;SDS011;68126;55.748;48.742;2023-08-30T20:22:07;2.72;;;0.98;;
78781;SDS011;68126;55.748;48.742;2023-08-30T20:27:34;4.85;;;0.90;;
78781;SDS011;68126;55.748;48.742;2023-08-30T20:38:30;4.25;;;0.70;;
78781;SDS011;68126;55.748;48.742;2023-08-30T20:43:55;1.85;;;0.82;;
78781;SDS011;68126;55.748;48.742;2023-08-30T20:49:20;2.92;;;0.80;;
78781;SDS011;68126;55.748;48.742;2023-08-30T20:54:45;3.35;;;1.40;;
78781;SDS011;68126;55.748;48.742;2023-08-30T21:00:10;4.45;;;1.35;;
78781;SDS011;68126;55.748;48.742;2023-08-30T21:05:35;2.45;;;1.10;;
78781;SDS011;68126;55.748;48.742;2023-08-30T21:11:00;1.85;;;0.80;;
78781;SDS011;68126;55.748;48.742;2023-08-30T21:16:25;2.37;;;0.90;;
78781;SDS011;68126;55.748;48.742;2023-08-30T21:21:49;5.12;;;1.05;;
78781;SDS011;68126;55.748;48.742;2023-08-30T21:27:14;2.72;;;1.07;;
78781;SDS011;68126;55.748;48.742;2023-08-30T21:32:39;2.25;;;0.80;;
78781;SDS011;68126;55.748;48.742;2023-08-30T21:38:06;2.30;;;0.90;;
78781;SDS011;68126;55.748;48.742;2023-08-30T21:43:31;2.72;;;1.10;;
78781;SDS011;68126;55.748;48.742;2023-08-30T21:48:56;2.70;;;1.10;;
78781;SDS011;68126;55.748;48.742;2023-08-30T21:54:20;2.00;;;0.82;;
78781;SDS011;68126;55.748;48.742;2023-08-30T21:59:45;7.87;;;1.10;;
78781;SDS011;68126;55.748;48.742;2023-08-30T22:05:11;1.87;;;1.07;;
78781;SDS011;68126;55.748;48.742;2023-08-30T22:10:37;2.25;;;0.88;;
78781;SDS011;68126;55.748;48.742;2023-08-30T22:16:04;2.00;;;0.90;;
78781;SDS011;68126;55.748;48.742;2023-08-30T22:21:29;2.02;;;0.88;;
78781;SDS011;68126;55.748;48.742;2023-08-30T22:27:14;2.70;;;1.12;;
78781;SDS011;68126;55.748;48.742;2023-08-30T22:32:39;3.22;;;1.07;;
78781;SDS011;68126;55.748;48.742;2023-08-30T22:38:05;5.33;;;1.40;;
78781;SDS011;68126;55.748;48.742;2023-08-30T22:43:30;2.40;;;1.25;;
78781;SDS011;68126;55.748;48.742;2023-08-30T22:48:55;3.27;;;1.40;;
78781;SDS011;68126;55.748;48.742;2023-08-30T22:54:20;3.05;;;0.98;;
78781;SDS011;68126;55.748;48.742;2023-08-30T22:59:45;4.83;;;1.37;;
78781;SDS011;68126;55.748;48.742;2023-08-30T23:05:10;3.02;;;0.95;;
78781;SDS011;68126;55.748;48.742;2023-08-30T23:10:35;2.02;;;1.05;;
78781;SDS011;68126;55.748;48.742;2023-08-30T23:16:00;5.05;;;1.02;;
78781;SDS011;68126;55.748;48.742;2023-08-30T23:21:25;5.10;;;1.25;;
78781;SDS011;68126;55.748;48.742;2023-08-30T23:26:50;3.27;;;1.30;;
78781;SDS011;68126;55.748;48.742;2023-08-30T23:32:14;3.08;;;1.95;;
78781;SDS011;68126;55.748;48.742;2023-08-30T23:37:39;2.22;;;1.17;;
78781;SDS011;68126;55.748;48.742;2023-08-30T23:43:05;2.80;;;1.10;;
78781;SDS011;68126;55.748;48.742;2023-08-30T23:48:30;2.70;;;1.52;;
78781;SDS011;68126;55.748;48.742;2023-08-30T23:53:55;4.00;;;1.72;;
78781;SDS011;68126;55.748;48.742;2023-08-30T23:59:20;2.70;;;1.30;;
